Time;durP1;ratioP1;P1;durP2;ratioP2;P2;SDS_P1;SDS_P2;PMS_P1;PMS_P2;Temp;Humidity;BMP_temperature;BMP_pressure;BME280_temperature;BME280_humidity;BME280_pressure;Samples;Min_cycle;Max_cycle;Signal;HPM_P1;HPM_P2
2021/09/03 00:02:17;;;;;;;34.40;16.10;;;;;;;;;;5011643;28;20038;-62
2021/09/03 00:04:42;;;;;;;29.92;16.63;;;;;;;;;;5013052;28;20420;-62
2021/09/03 00:07:07;;;;;;;30.90;16.58;;;;;;;;;;5011494;28;20026;-62
2021/09/03 00:09:33;;;;;;;36.72;17.02;;;;;;;;;;5011678;28;20050;-62
2021/09/03 00:11:58;;;;;;;27.42;16.30;;;;;;;;;;5012853;28;20057;-62
2021/09/03 00:14:23;;;;;;;34.33;18.30;;;;;;;;;;5013116;28;20026;-62
2021/09/03 00:16:48;;;;;;;32.47;18.33;;;;;;;;;;5012777;28;20034;-62
2021/09/03 00:19:13;;;;;;;31.40;15.77;;;;;;;;;;5013086;28;20113;-62
2021/09/03 00:21:39;;;;;;;29.52;14.60;;;;;;;;;;4999332;28;20037;-62
2021/09/03 00:24:04;;;;;;;26.67;15.15;;;;;;;;;;4993337;28;20034;-62
2021/09/03 00:26:29;;;;;;;23.23;15.73;;;;;;;;;;4993034;28;20031;-62
2021/09/03 00:28:54;;;;;;;32.63;17.58;;;;;;;;;;4993151;28;20045;-62
2021/09/03 00:31:20;;;;;;;31.17;17.67;;;;;;;;;;4993005;28;20065;-62
2021/09/03 00:33:45;;;;;;;29.45;17.33;;;;;;;;;;4993339;28;20033;-62
2021/09/03 00:36:10;;;;;;;34.85;18.73;;;;;;;;;;4992924;28;20027;-64
2021/09/03 00:38:35;;;;;;;34.90;19.33;;;;;;;;;;4993070;28;20376;-64
2021/09/03 00:41:00;;;;;;;28.75;17.90;;;;;;;;;;4992963;28;20523;-64
2021/09/03 00:43:27;;;;;;;32.13;17.67;;;;;;;;;;4992003;28;20072;-64
2021/09/03 00:45:52;;;;;;;38.47;18.83;;;;;;;;;;5010451;28;20432;-65
2021/09/03 00:48:17;;;;;;;36.20;16.92;;;;;;;;;;5012875;28;20141;-65
2021/09/03 00:50:43;;;;;;;33.17;17.85;;;;;;;;;;5017925;28;20033;-64
2021/09/03 00:53:08;;;;;;;29.33;17.98;;;;;;;;;;5032392;28;20104;-62
2021/09/03 00:55:34;;;;;;;37.80;19.13;;;;;;;;;;5009531;28;20054;-62
2021/09/03 00:57:59;;;;;;;32.00;17.75;;;;;;;;;;5012581;28;20014;-64
2021/09/03 01:00:24;;;;;;;30.45;17.80;;;;;;;;;;5011058;28;20037;-65
2021/09/03 01:02:49;;;;;;;25.73;16.35;;;;;;;;;;5011512;28;20018;-62
2021/09/03 01:05:14;;;;;;;28.77;16.63;;;;;;;;;;5012243;28;20387;-65
2021/09/03 01:07:40;;;;;;;29.73;16.95;;;;;;;;;;5012481;28;20025;-64
2021/09/03 01:10:05;;;;;;;31.95;16.85;;;;;;;;;;5011906;28;20133;-64
2021/09/03 01:12:30;;;;;;;27.85;15.98;;;;;;;;;;5012425;28;20376;-63
2021/09/03 01:14:56;;;;;;;29.67;17.60;;;;;;;;;;5012597;28;20028;-64
2021/09/03 01:17:21;;;;;;;28.92;15.77;;;;;;;;;;5032827;28;20056;-64
2021/09/03 01:19:48;;;;;;;32.00;17.98;;;;;;;;;;5035784;28;20057;-64
2021/09/03 01:22:14;;;;;;;32.42;19.33;;;;;;;;;;5016931;28;20057;-62
2021/09/03 01:24:39;;;;;;;37.33;19.58;;;;;;;;;;5015765;28;20049;-64
2021/09/03 01:27:04;;;;;;;32.10;17.85;;;;;;;;;;5015453;28;20066;-65
2021/09/03 01:29:29;;;;;;;31.13;16.42;;;;;;;;;;5015842;28;20034;-62
2021/09/03 01:31:55;;;;;;;26.20;14.82;;;;;;;;;;5013994;28;20026;-62
2021/09/03 01:34:20;;;;;;;23.48;14.32;;;;;;;;;;5015823;28;20104;-62
2021/09/03 01:36:45;;;;;;;23.17;14.85;;;;;;;;;;5015314;28;20034;-62
2021/09/03 01:39:10;;;;;;;25.98;14.48;;;;;;;;;;5015533;28;20750;-62
2021/09/03 01:41:35;;;;;;;31.52;17.88;;;;;;;;;;5015165;28;20034;-64
2021/09/03 01:44:01;;;;;;;39.25;19.23;;;;;;;;;;5015246;28;20079;-63
2021/09/03 01:46:26;;;;;;;29.83;17.52;;;;;;;;;;5015021;28;20041;-63
2021/09/03 01:48:51;;;;;;;37.15;18.65;;;;;;;;;;5015260;28;20049;-63
2021/09/03 01:51:16;;;;;;;38.80;19.23;;;;;;;;;;5014890;28;20030;-63
2021/09/03 01:53:42;;;;;;;39.38;20.88;;;;;;;;;;5015221;28;20155;-63
2021/09/03 01:56:07;;;;;;;43.60;23.02;;;;;;;;;;5014839;28;20029;-63
2021/09/03 01:58:32;;;;;;;45.88;23.83;;;;;;;;;;5015237;28;20084;-63
2021/09/03 02:00:57;;;;;;;37.30;21.40;;;;;;;;;;5013664;28;20376;-63
2021/09/03 02:03:23;;;;;;;41.80;23.42;;;;;;;;;;5015113;28;20472;-63
2021/09/03 02:05:48;;;;;;;38.97;22.70;;;;;;;;;;5014690;28;20018;-63
2021/09/03 02:08:13;;;;;;;41.15;20.27;;;;;;;;;;5014749;28;20025;-63
2021/09/03 02:10:38;;;;;;;33.63;19.85;;;;;;;;;;5014648;28;20305;-63
2021/09/03 02:13:04;;;;;;;38.97;20.65;;;;;;;;;;5014843;28;20033;-63
2021/09/03 02:15:29;;;;;;;40.03;21.25;;;;;;;;;;5014614;28;20029;-63
2021/09/03 02:17:54;;;;;;;39.17;22.48;;;;;;;;;;5014802;28;20021;-63
2021/09/03 02:20:19;;;;;;;51.83;23.77;;;;;;;;;;5012949;28;20150;-63
2021/09/03 02:22:45;;;;;;;45.90;23.48;;;;;;;;;;5014758;28;20021;-63
2021/09/03 02:25:10;;;;;;;47.53;23.33;;;;;;;;;;5014592;28;20542;-63
2021/09/03 02:27:36;;;;;;;42.33;22.48;;;;;;;;;;5014757;28;20021;-63
2021/09/03 02:30:01;;;;;;;43.25;23.55;;;;;;;;;;5014002;28;20033;-63
2021/09/03 02:32:26;;;;;;;35.22;20.10;;;;;;;;;;5013331;28;20112;-63
2021/09/03 02:34:51;;;;;;;32.03;18.95;;;;;;;;;;5010766;28;20108;-63
2021/09/03 02:37:16;;;;;;;45.05;22.05;;;;;;;;;;5053133;28;20108;-63
2021/09/03 02:39:42;;;;;;;38.83;20.05;;;;;;;;;;5014775;28;20030;-63
2021/09/03 02:42:07;;;;;;;35.47;20.42;;;;;;;;;;5013856;28;20036;-63
2021/09/03 02:44:32;;;;;;;33.55;17.73;;;;;;;;;;5014126;28;20038;-63
2021/09/03 02:46:57;;;;;;;53.25;26.77;;;;;;;;;;4998302;28;20031;-63
2021/09/03 02:49:22;;;;;;;41.95;22.50;;;;;;;;;;4994683;28;20204;-63
2021/09/03 02:51:48;;;;;;;43.40;22.25;;;;;;;;;;4994258;28;20495;-64
2021/09/03 02:54:13;;;;;;;45.13;24.40;;;;;;;;;;4994586;28;20077;-63
2021/09/03 02:56:38;;;;;;;43.58;23.23;;;;;;;;;;5007400;28;20046;-63
2021/09/03 02:59:03;;;;;;;46.20;23.10;;;;;;;;;;5014223;28;20060;-63
2021/09/03 03:01:29;;;;;;;44.22;22.80;;;;;;;;;;5001580;28;20038;-63
2021/09/03 03:03:54;;;;;;;52.30;24.13;;;;;;;;;;4994246;28;20081;-63
2021/09/03 03:06:19;;;;;;;50.10;22.80;;;;;;;;;;4993830;28;20042;-64
2021/09/03 03:08:44;;;;;;;41.42;22.52;;;;;;;;;;4993834;28;20137;-63
2021/09/03 03:11:10;;;;;;;44.65;23.48;;;;;;;;;;4997252;28;20075;-64
2021/09/03 03:13:35;;;;;;;38.72;21.02;;;;;;;;;;5013656;28;20025;-63
2021/09/03 03:16:00;;;;;;;36.80;19.90;;;;;;;;;;5012116;28;20034;-63
2021/09/03 03:18:25;;;;;;;34.38;18.08;;;;;;;;;;5012488;28;20093;-63
2021/09/03 03:20:51;;;;;;;31.90;18.20;;;;;;;;;;5013316;28;20476;-63
2021/09/03 03:23:16;;;;;;;38.90;21.48;;;;;;;;;;4996033;28;20018;-63
2021/09/03 03:25:41;;;;;;;40.95;21.40;;;;;;;;;;5013225;28;20044;-63
2021/09/03 03:28:07;;;;;;;34.38;19.60;;;;;;;;;;5013654;28;20423;-63
2021/09/03 03:30:32;;;;;;;41.17;20.13;;;;;;;;;;5012936;28;20044;-64
2021/09/03 03:32:57;;;;;;;34.25;18.27;;;;;;;;;;5013630;28;20034;-63
2021/09/03 03:35:22;;;;;;;39.20;20.58;;;;;;;;;;5013203;28;20090;-63
2021/09/03 03:37:48;;;;;;;41.83;19.60;;;;;;;;;;5013402;28;20028;-63
2021/09/03 03:40:14;;;;;;;37.10;20.40;;;;;;;;;;5012983;28;20525;-63
2021/09/03 03:42:39;;;;;;;36.33;18.85;;;;;;;;;;5012160;28;20010;-63
2021/09/03 03:45:04;;;;;;;33.47;18.45;;;;;;;;;;5012946;28;20362;-64
2021/09/03 03:47:29;;;;;;;39.50;19.42;;;;;;;;;;5013321;28;20017;-63
2021/09/03 03:49:55;;;;;;;46.88;22.10;;;;;;;;;;5013129;28;20393;-63
2021/09/03 03:52:20;;;;;;;52.40;25.08;;;;;;;;;;5012608;28;20100;-63
2021/09/03 03:54:45;;;;;;;46.88;22.20;;;;;;;;;;5012093;28;20118;-63
2021/09/03 03:57:10;;;;;;;43.95;23.00;;;;;;;;;;5012736;28;20176;-63
2021/09/03 03:59:36;;;;;;;40.13;21.88;;;;;;;;;;5013314;28;20451;-63
2021/09/03 04:02:01;;;;;;;47.13;22.75;;;;;;;;;;5012735;28;20034;-63
2021/09/03 04:04:26;;;;;;;58.70;24.77;;;;;;;;;;5013179;28;20536;-63
2021/09/03 04:06:51;;;;;;;46.13;22.90;;;;;;;;;;5012753;28;20551;-63
2021/09/03 04:09:17;;;;;;;59.35;26.92;;;;;;;;;;5011588;28;20398;-63
2021/09/03 04:11:45;;;;;;;63.70;28.80;;;;;;;;;;5011585;28;20034;-63
2021/09/03 04:14:10;;;;;;;53.95;25.85;;;;;;;;;;5012339;28;20443;-63
2021/09/03 04:16:35;;;;;;;46.20;23.83;;;;;;;;;;5013055;28;20528;-63
2021/09/03 04:19:00;;;;;;;50.33;24.60;;;;;;;;;;5012170;28;20073;-63
2021/09/03 04:21:26;;;;;;;52.63;25.45;;;;;;;;;;5012526;28;20503;-63
2021/09/03 04:23:51;;;;;;;48.83;24.90;;;;;;;;;;5013189;28;20449;-63
2021/09/03 04:26:16;;;;;;;43.42;22.05;;;;;;;;;;5012647;28;20623;-63
2021/09/03 04:28:43;;;;;;;35.30;20.42;;;;;;;;;;5012945;28;20033;-63
2021/09/03 04:31:08;;;;;;;34.70;18.02;;;;;;;;;;5012425;28;20037;-63
2021/09/03 04:33:34;;;;;;;41.63;21.58;;;;;;;;;;5012785;28;20018;-63
2021/09/03 04:35:59;;;;;;;49.40;23.67;;;;;;;;;;5012322;28;20151;-63
2021/09/03 04:38:25;;;;;;;45.58;24.02;;;;;;;;;;5012806;28;20026;-63
2021/09/03 04:40:50;;;;;;;43.63;23.35;;;;;;;;;;5011079;28;20477;-63
2021/09/03 04:43:16;;;;;;;43.00;23.55;;;;;;;;;;5012619;28;20121;-63
2021/09/03 04:45:41;;;;;;;41.53;21.95;;;;;;;;;;5012424;28;20049;-63
2021/09/03 04:48:06;;;;;;;41.42;21.63;;;;;;;;;;5012607;28;20024;-63
2021/09/03 04:50:32;;;;;;;41.17;20.40;;;;;;;;;;5012284;28;20057;-65
2021/09/03 04:52:57;;;;;;;41.50;22.80;;;;;;;;;;5016358;28;20026;-63
2021/09/03 04:55:22;;;;;;;52.22;24.13;;;;;;;;;;5016307;28;20026;-63
2021/09/03 04:57:47;;;;;;;49.33;24.27;;;;;;;;;;5016360;28;20053;-63
2021/09/03 05:00:15;;;;;;;57.10;26.65;;;;;;;;;;5016003;28;20018;-64
2021/09/03 05:02:40;;;;;;;47.95;23.40;;;;;;;;;;5016648;28;20014;-64
2021/09/03 05:05:06;;;;;;;44.88;23.75;;;;;;;;;;5015919;28;20022;-63
2021/09/03 05:07:31;;;;;;;45.88;23.10;;;;;;;;;;5016154;28;20052;-62
2021/09/03 05:09:56;;;;;;;43.67;19.98;;;;;;;;;;5015980;28;20058;-63
2021/09/03 05:12:21;;;;;;;40.78;19.63;;;;;;;;;;5016024;28;20034;-65
2021/09/03 05:14:47;;;;;;;35.35;18.85;;;;;;;;;;5015919;28;20028;-64
2021/09/03 05:17:12;;;;;;;35.85;18.70;;;;;;;;;;5015685;28;20037;-63
2021/09/03 05:19:37;;;;;;;29.30;16.88;;;;;;;;;;5016062;28;20046;-63
2021/09/03 05:22:02;;;;;;;28.38;16.77;;;;;;;;;;5014343;28;20030;-63
2021/09/03 05:24:27;;;;;;;26.92;15.15;;;;;;;;;;5015977;28;20036;-63
2021/09/03 05:26:53;;;;;;;25.10;13.40;;;;;;;;;;5015239;28;20117;-63
2021/09/03 05:29:18;;;;;;;24.63;15.00;;;;;;;;;;5014458;28;20061;-63
2021/09/03 05:31:43;;;;;;;37.55;15.60;;;;;;;;;;5015395;28;20033;-63
2021/09/03 05:34:08;;;;;;;29.02;15.50;;;;;;;;;;5015695;28;20387;-63
2021/09/03 05:36:34;;;;;;;30.15;14.23;;;;;;;;;;5015254;28;20129;-63
2021/09/03 05:38:59;;;;;;;30.67;13.68;;;;;;;;;;5015462;28;20018;-63
2021/09/03 05:41:24;;;;;;;32.42;12.88;;;;;;;;;;5015303;28;20046;-63
2021/09/03 05:43:49;;;;;;;21.38;11.70;;;;;;;;;;5016077;28;20475;-64
2021/09/03 05:46:15;;;;;;;23.83;10.75;;;;;;;;;;5014039;28;20064;-63
2021/09/03 05:48:40;;;;;;;20.33;10.45;;;;;;;;;;5015453;28;20018;-64
2021/09/03 05:51:05;;;;;;;22.10;10.45;;;;;;;;;;5014980;28;20153;-64
2021/09/03 05:53:30;;;;;;;19.67;10.88;;;;;;;;;;5014149;28;20025;-63
2021/09/03 05:55:56;;;;;;;27.55;11.40;;;;;;;;;;5014761;28;20034;-63
2021/09/03 05:58:21;;;;;;;29.83;12.57;;;;;;;;;;5015460;28;20045;-63
2021/09/03 06:00:46;;;;;;;22.40;11.65;;;;;;;;;;5015009;28;20112;-64
2021/09/03 06:03:11;;;;;;;15.57;9.60;;;;;;;;;;5014828;28;20388;-64
2021/09/03 06:05:37;;;;;;;21.37;10.93;;;;;;;;;;5013322;28;20054;-63
2021/09/03 06:08:02;;;;;;;14.57;9.90;;;;;;;;;;5015089;28;20286;-63
2021/09/03 06:10:27;;;;;;;19.73;9.63;;;;;;;;;;5014464;28;20042;-64
2021/09/03 06:12:53;;;;;;;21.73;10.95;;;;;;;;;;5014887;28;20025;-63
2021/09/03 06:15:18;;;;;;;18.58;11.32;;;;;;;;;;5014555;28;20022;-63
2021/09/03 06:17:43;;;;;;;15.73;9.68;;;;;;;;;;5014823;28;20432;-63
2021/09/03 06:20:10;;;;;;;18.52;10.95;;;;;;;;;;5014506;28;20053;-64
2021/09/03 06:22:35;;;;;;;21.65;11.52;;;;;;;;;;5014756;28;20046;-64
2021/09/03 06:25:00;;;;;;;18.15;10.40;;;;;;;;;;5014583;28;20072;-64
2021/09/03 06:27:25;;;;;;;20.90;12.05;;;;;;;;;;5014851;28;20014;-64
2021/09/03 06:29:53;;;;;;;17.02;11.30;;;;;;;;;;5014800;28;20037;-64
2021/09/03 06:32:19;;;;;;;20.05;12.13;;;;;;;;;;5014410;28;20026;-64
2021/09/03 06:34:45;;;;;;;17.40;11.75;;;;;;;;;;5014848;28;20050;-64
2021/09/03 06:37:11;;;;;;;19.63;12.73;;;;;;;;;;5013929;28;20033;-64
2021/09/03 06:39:36;;;;;;;19.17;12.10;;;;;;;;;;5014995;28;20388;-63
2021/09/03 06:42:02;;;;;;;20.90;12.50;;;;;;;;;;5012588;28;20034;-64
2021/09/03 06:44:27;;;;;;;18.52;12.07;;;;;;;;;;5013557;28;20456;-64
2021/09/03 06:46:52;;;;;;;21.50;11.68;;;;;;;;;;5012979;28;20026;-63
2021/09/03 06:49:18;;;;;;;22.73;12.30;;;;;;;;;;4997084;28;20022;-64
2021/09/03 06:51:43;;;;;;;23.93;12.60;;;;;;;;;;5013818;28;20049;-64
2021/09/03 06:54:08;;;;;;;30.50;14.73;;;;;;;;;;5014391;28;20252;-65
2021/09/03 06:56:34;;;;;;;33.10;15.27;;;;;;;;;;5013760;28;20034;-64
2021/09/03 06:59:00;;;;;;;35.70;15.27;;;;;;;;;;5014280;28;20407;-64
2021/09/03 07:01:25;;;;;;;33.50;14.75;;;;;;;;;;5013780;28;20272;-64
2021/09/03 07:03:51;;;;;;;20.30;11.55;;;;;;;;;;5014078;28;20048;-64
2021/09/03 07:06:16;;;;;;;29.75;13.07;;;;;;;;;;5012285;28;20694;-63
2021/09/03 07:08:41;;;;;;;21.02;12.65;;;;;;;;;;5013620;28;20069;-63
2021/09/03 07:11:06;;;;;;;30.10;12.02;;;;;;;;;;5013315;28;20033;-64
2021/09/03 07:13:32;;;;;;;22.58;11.95;;;;;;;;;;5013142;28;20100;-63
2021/09/03 07:15:57;;;;;;;24.23;11.23;;;;;;;;;;5013175;28;20030;-63
2021/09/03 07:18:22;;;;;;;21.92;11.23;;;;;;;;;;5013888;28;20053;-64
2021/09/03 07:20:47;;;;;;;32.88;11.35;;;;;;;;;;5013481;28;20057;-63
2021/09/03 07:23:12;;;;;;;28.80;11.65;;;;;;;;;;5013659;28;20021;-64
2021/09/03 07:25:38;;;;;;;33.10;11.52;;;;;;;;;;5013295;28;20041;-63
2021/09/03 07:28:03;;;;;;;34.50;11.70;;;;;;;;;;5013490;28;20021;-64
2021/09/03 07:30:28;;;;;;;36.88;12.40;;;;;;;;;;5013299;28;20042;-64
2021/09/03 07:32:53;;;;;;;41.13;12.98;;;;;;;;;;5013879;28;20029;-64
2021/09/03 07:35:19;;;;;;;41.13;13.63;;;;;;;;;;5013176;28;20022;-64
2021/09/03 07:37:44;;;;;;;31.15;12.23;;;;;;;;;;5014003;28;20018;-64
2021/09/03 07:40:10;;;;;;;46.42;12.98;;;;;;;;;;5013209;28;20021;-63
2021/09/03 07:42:35;;;;;;;37.08;13.73;;;;;;;;;;5013795;28;20030;-64
2021/09/03 07:45:00;;;;;;;32.30;13.88;;;;;;;;;;5013564;28;20461;-63
2021/09/03 07:47:26;;;;;;;34.35;13.38;;;;;;;;;;5013358;28;20038;-63
2021/09/03 07:49:51;;;;;;;30.83;12.43;;;;;;;;;;5013411;28;20069;-64
2021/09/03 07:52:16;;;;;;;38.33;13.43;;;;;;;;;;5031571;28;20029;-63
2021/09/03 07:54:43;;;;;;;28.88;13.23;;;;;;;;;;5033092;28;20025;-64
2021/09/03 07:57:08;;;;;;;31.75;12.93;;;;;;;;;;5032678;28;20037;-65
2021/09/03 07:59:33;;;;;;;31.23;13.02;;;;;;;;;;5031974;28;20423;-64
2021/09/03 08:01:59;;;;;;;33.38;11.90;;;;;;;;;;5032551;28;20090;-64
2021/09/03 08:04:24;;;;;;;29.40;12.18;;;;;;;;;;5032930;28;20104;-63
2021/09/03 08:06:49;;;;;;;31.08;12.40;;;;;;;;;;5032740;28;20484;-63
2021/09/03 08:09:15;;;;;;;26.92;12.07;;;;;;;;;;5032780;28;20081;-64
2021/09/03 08:11:40;;;;;;;23.70;12.27;;;;;;;;;;5031380;28;20025;-63
2021/09/03 08:14:05;;;;;;;25.48;13.30;;;;;;;;;;5032932;28;20021;-64
2021/09/03 08:16:30;;;;;;;26.92;12.65;;;;;;;;;;5032534;28;20039;-64
2021/09/03 08:18:56;;;;;;;32.15;13.00;;;;;;;;;;5032766;28;20030;-64
2021/09/03 08:21:21;;;;;;;23.33;12.30;;;;;;;;;;5032577;28;20112;-64
2021/09/03 08:23:46;;;;;;;29.25;13.07;;;;;;;;;;5032738;28;20021;-64
2021/09/03 08:26:11;;;;;;;25.13;11.10;;;;;;;;;;5034582;28;20087;-64
2021/09/03 08:28:36;;;;;;;25.60;12.65;;;;;;;;;;5036803;28;20056;-63
2021/09/03 08:31:02;;;;;;;28.77;11.80;;;;;;;;;;5036229;28;20042;-64
2021/09/03 08:33:27;;;;;;;31.67;12.45;;;;;;;;;;5036743;28;20442;-64
2021/09/03 08:35:52;;;;;;;27.10;12.00;;;;;;;;;;5036152;28;20029;-64
2021/09/03 08:38:17;;;;;;;29.17;12.10;;;;;;;;;;5036580;28;20063;-64
2021/09/03 08:40:43;;;;;;;36.00;12.48;;;;;;;;;;5036182;28;20021;-63
2021/09/03 08:43:08;;;;;;;30.55;11.65;;;;;;;;;;5035282;28;20105;-64
2021/09/03 08:45:33;;;;;;;35.15;11.90;;;;;;;;;;5036182;28;20033;-64
2021/09/03 08:47:58;;;;;;;38.53;11.85;;;;;;;;;;5036501;28;20020;-64
2021/09/03 08:50:24;;;;;;;33.10;11.40;;;;;;;;;;5034728;28;20037;-63
2021/09/03 08:52:52;;;;;;;27.02;10.45;;;;;;;;;;5036427;28;20075;-64
2021/09/03 08:55:18;;;;;;;29.80;11.37;;;;;;;;;;5018415;28;20075;-64
2021/09/03 08:57:43;;;;;;;29.23;10.20;;;;;;;;;;5036325;28;20464;-64
2021/09/03 09:00:15;;;;;;;22.88;10.80;;;;;;;;;;5035974;28;20013;-64
2021/09/03 09:02:57;;;;;;;23.98;10.45;;;;;;;;;;5036275;28;20402;-64
2021/09/03 09:05:22;;;;;;;39.20;10.85;;;;;;;;;;5035756;28;20053;-64
2021/09/03 09:07:48;;;;;;;23.45;10.18;;;;;;;;;;5034468;28;20017;-63
2021/09/03 09:10:13;;;;;;;27.33;9.90;;;;;;;;;;5034278;28;20144;-64
2021/09/03 09:12:44;;;;;;;26.47;10.10;;;;;;;;;;5036069;28;20427;-64
2021/09/03 09:15:10;;;;;;;27.00;10.57;;;;;;;;;;5035492;28;20255;-64
2021/09/03 09:17:42;;;;;;;24.15;10.90;;;;;;;;;;5036145;28;20084;-64
2021/09/03 09:20:07;;;;;;;32.30;10.43;;;;;;;;;;5034361;28;20026;-64
2021/09/03 09:22:52;;;;;;;21.17;10.43;;;;;;;;;;5035862;28;20063;-64
2021/09/03 09:25:27;;;;;;;24.48;10.68;;;;;;;;;;5035352;28;20049;-64
2021/09/03 09:27:53;;;;;;;26.17;10.80;;;;;;;;;;5036044;28;20122;-64
2021/09/03 09:30:27;;;;;;;27.17;10.57;;;;;;;;;;5035491;28;20033;-64
2021/09/03 09:33:12;;;;;;;24.20;10.63;;;;;;;;;;5035842;28;20025;-64
2021/09/03 09:35:41;;;;;;;22.75;11.23;;;;;;;;;;5035077;28;20022;-64
2021/09/03 09:38:09;;;;;;;24.00;10.55;;;;;;;;;;5034876;28;20028;-64
2021/09/03 09:40:44;;;;;;;29.50;10.98;;;;;;;;;;5035218;28;20034;-65
2021/09/03 09:43:35;;;;;;;25.13;10.82;;;;;;;;;;5035366;28;20014;-64
2021/09/03 09:46:07;;;;;;;22.05;10.82;;;;;;;;;;5029702;28;20037;-64
2021/09/03 09:48:32;;;;;;;23.70;10.85;;;;;;;;;;5035271;28;20036;-64
2021/09/03 09:50:57;;;;;;;24.08;10.65;;;;;;;;;;5034983;28;20038;-64
2021/09/03 09:53:22;;;;;;;31.88;10.57;;;;;;;;;;5035168;28;20507;-64
2021/09/03 09:55:48;;;;;;;23.13;10.85;;;;;;;;;;5034712;28;20105;-64
2021/09/03 09:58:14;;;;;;;27.00;10.60;;;;;;;;;;5035235;28;20026;-64
2021/09/03 10:00:39;;;;;;;29.58;11.35;;;;;;;;;;5033603;28;20411;-64
2021/09/03 10:03:05;;;;;;;25.30;11.33;;;;;;;;;;5033647;28;20032;-65
2021/09/03 10:05:30;;;;;;;26.75;10.95;;;;;;;;;;5034802;28;20392;-64
2021/09/03 10:07:56;;;;;;;30.10;11.05;;;;;;;;;;5033770;28;20144;-64
2021/09/03 10:10:21;;;;;;;24.10;10.85;;;;;;;;;;5033279;28;20049;-64
2021/09/03 10:12:46;;;;;;;32.85;12.68;;;;;;;;;;5034814;28;20025;-64
2021/09/03 10:15:12;;;;;;;32.42;12.43;;;;;;;;;;5034402;28;20028;-64
2021/09/03 10:17:37;;;;;;;29.65;12.00;;;;;;;;;;5033591;28;20021;-65
2021/09/03 10:20:02;;;;;;;32.20;12.07;;;;;;;;;;5034248;28;20017;-64
2021/09/03 10:22:28;;;;;;;30.80;12.18;;;;;;;;;;5033392;28;20021;-65
2021/09/03 10:25:06;;;;;;;22.33;11.15;;;;;;;;;;5033284;28;20018;-65
2021/09/03 10:27:31;;;;;;;27.25;12.10;;;;;;;;;;5014599;28;20045;-64
2021/09/03 10:30:02;;;;;;;28.23;12.40;;;;;;;;;;5014759;28;20057;-64
2021/09/03 10:32:27;;;;;;;19.95;10.82;;;;;;;;;;5029501;28;20279;-64
2021/09/03 10:34:54;;;;;;;11.75;7.18;;;;;;;;;;5029746;28;20022;-64
2021/09/03 10:37:23;;;;;;;10.02;6.70;;;;;;;;;;5014132;28;20026;-64
2021/09/03 10:39:52;;;;;;;11.27;6.93;;;;;;;;;;5014397;28;20045;-65
2021/09/03 10:42:45;;;;;;;9.95;6.50;;;;;;;;;;5014058;28;20034;-64
2021/09/03 10:45:18;;;;;;;8.60;6.15;;;;;;;;;;5014075;28;20487;-64
2021/09/03 10:47:45;;;;;;;9.73;6.53;;;;;;;;;;5014454;28;20034;-64
2021/09/03 10:50:20;;;;;;;8.80;5.95;;;;;;;;;;5012999;28;20425;-64
2021/09/03 10:55:48;;;;;;;10.18;6.53;;;;;;;;;;5014042;28;20116;-64
2021/09/03 10:58:32;;;;;;;10.75;6.60;;;;;;;;;;5014254;28;20041;-64
2021/09/03 11:01:09;;;;;;;10.93;7.20;;;;;;;;;;5013660;28;20444;-64
2021/09/03 11:03:44;;;;;;;13.35;6.65;;;;;;;;;;5013957;28;20014;-64
2021/09/03 11:06:15;;;;;;;10.27;6.50;;;;;;;;;;5013303;28;20109;-64
2021/09/03 11:08:42;;;;;;;11.75;6.57;;;;;;;;;;5013421;28;20053;-64
2021/09/03 11:11:26;;;;;;;12.73;6.53;;;;;;;;;;5012162;28;20057;-65
2021/09/03 11:13:52;;;;;;;7.90;5.82;;;;;;;;;;5013780;28;20013;-65
2021/09/03 11:16:36;;;;;;;13.65;6.20;;;;;;;;;;5012213;28;20042;-65
2021/09/03 11:19:02;;;;;;;8.93;6.07;;;;;;;;;;5013859;28;20017;-64
2021/09/03 11:21:34;;;;;;;9.52;6.05;;;;;;;;;;5013334;28;20061;-64
2021/09/03 11:23:59;;;;;;;12.23;6.50;;;;;;;;;;5013806;28;20018;-65
2021/09/03 11:26:28;;;;;;;8.88;6.30;;;;;;;;;;5013135;28;20038;-64
2021/09/03 11:28:54;;;;;;;11.38;6.28;;;;;;;;;;5013832;28;20411;-64
2021/09/03 11:31:19;;;;;;;9.32;5.88;;;;;;;;;;5013243;28;20176;-64
2021/09/03 11:33:45;;;;;;;10.85;6.78;;;;;;;;;;5013470;28;20033;-64
2021/09/03 11:36:10;;;;;;;11.68;6.50;;;;;;;;;;5013216;28;20064;-64
2021/09/03 11:38:35;;;;;;;9.38;6.40;;;;;;;;;;5013607;28;20045;-65
2021/09/03 11:41:07;;;;;;;12.50;6.40;;;;;;;;;;5012890;28;20080;-64
2021/09/03 11:43:33;;;;;;;9.63;6.35;;;;;;;;;;5013589;28;20435;-65
2021/09/03 11:45:58;;;;;;;9.02;6.15;;;;;;;;;;5012910;28;20025;-65
2021/09/03 11:48:23;;;;;;;10.63;6.78;;;;;;;;;;5013375;28;20056;-65
2021/09/03 11:50:48;;;;;;;12.40;6.55;;;;;;;;;;5012795;28;20397;-64
2021/09/03 11:53:15;;;;;;;9.95;6.75;;;;;;;;;;5013114;28;20384;-64
2021/09/03 11:55:41;;;;;;;10.45;6.03;;;;;;;;;;5011502;28;20029;-65
2021/09/03 11:58:07;;;;;;;13.35;6.55;;;;;;;;;;5013218;28;20018;-64
2021/09/03 12:00:36;;;;;;;8.50;5.78;;;;;;;;;;5012510;28;20030;-65
2021/09/03 12:03:03;;;;;;;12.23;6.57;;;;;;;;;;5013159;28;20025;-64
2021/09/03 12:05:28;;;;;;;9.57;6.50;;;;;;;;;;5011684;28;20259;-64
2021/09/03 12:08:11;;;;;;;11.77;6.70;;;;;;;;;;5013233;28;20037;-64
2021/09/03 12:10:37;;;;;;;13.45;6.55;;;;;;;;;;5012827;28;20050;-64
2021/09/03 12:13:13;;;;;;;10.13;6.18;;;;;;;;;;5012946;28;20046;-64
2021/09/03 12:15:38;;;;;;;9.45;6.25;;;;;;;;;;5012688;28;20026;-65
2021/09/03 12:18:07;;;;;;;9.82;6.47;;;;;;;;;;5013026;28;20032;-65
2021/09/03 12:20:32;;;;;;;10.77;6.00;;;;;;;;;;5012628;28;20088;-64
2021/09/03 12:22:58;;;;;;;10.23;6.07;;;;;;;;;;5013122;28;20729;-64
2021/09/03 12:25:33;;;;;;;10.27;6.20;;;;;;;;;;5012342;28;20480;-65
2021/09/03 12:28:08;;;;;;;10.75;6.18;;;;;;;;;;5012819;28;20018;-64
2021/09/03 12:30:33;;;;;;;11.65;6.22;;;;;;;;;;5012564;28;20034;-64
2021/09/03 12:33:17;;;;;;;10.25;6.25;;;;;;;;;;5012789;28;20076;-65
2021/09/03 12:35:45;;;;;;;17.70;6.60;;;;;;;;;;5012534;28;20029;-64
2021/09/03 12:38:11;;;;;;;10.30;5.90;;;;;;;;;;5011708;28;20423;-64
2021/09/03 12:40:36;;;;;;;10.23;6.57;;;;;;;;;;5012326;28;20029;-64
2021/09/03 12:43:01;;;;;;;11.88;6.05;;;;;;;;;;5012749;28;20396;-65
2021/09/03 12:45:45;;;;;;;10.90;6.40;;;;;;;;;;5012275;28;20455;-66
2021/09/03 12:48:10;;;;;;;11.38;5.80;;;;;;;;;;5011272;28;20024;-66
2021/09/03 12:50:36;;;;;;;10.73;6.43;;;;;;;;;;5012233;28;20034;-64
2021/09/03 12:53:02;;;;;;;9.00;6.07;;;;;;;;;;5012764;28;20071;-64
2021/09/03 12:55:28;;;;;;;10.63;5.95;;;;;;;;;;5012256;28;20030;-64
2021/09/03 12:57:53;;;;;;;14.32;6.60;;;;;;;;;;5012668;28;20014;-64
2021/09/03 13:00:18;;;;;;;8.48;5.75;;;;;;;;;;5012139;28;20034;-64
2021/09/03 13:02:44;;;;;;;8.55;5.95;;;;;;;;;;5012556;28;20018;-64
2021/09/03 13:05:10;;;;;;;11.18;5.75;;;;;;;;;;5011008;28;20040;-64
2021/09/03 13:07:35;;;;;;;10.75;6.00;;;;;;;;;;5012603;28;20460;-64
2021/09/03 13:10:00;;;;;;;8.55;5.45;;;;;;;;;;5010681;28;20066;-64
2021/09/03 13:12:25;;;;;;;8.43;5.70;;;;;;;;;;5013359;28;20068;-66
2021/09/03 13:14:51;;;;;;;9.77;5.07;;;;;;;;;;5016205;28;20044;-64
2021/09/03 13:17:16;;;;;;;12.98;5.43;;;;;;;;;;5015249;28;20128;-64
2021/09/03 13:19:42;;;;;;;10.80;5.57;;;;;;;;;;5016250;28;20532;-64
2021/09/03 13:22:07;;;;;;;13.15;6.28;;;;;;;;;;5015704;28;20104;-64
2021/09/03 13:24:32;;;;;;;8.10;5.55;;;;;;;;;;5015977;28;20085;-64
2021/09/03 13:26:57;;;;;;;8.98;5.65;;;;;;;;;;5014176;28;20040;-65
2021/09/03 13:29:22;;;;;;;10.13;5.55;;;;;;;;;;5015625;28;20026;-64
2021/09/03 13:31:48;;;;;;;9.63;5.57;;;;;;;;;;5015486;28;20058;-64
2021/09/03 13:34:13;;;;;;;8.77;5.70;;;;;;;;;;5015888;28;20050;-64
2021/09/03 13:36:38;;;;;;;8.50;6.00;;;;;;;;;;5015383;28;20120;-64
2021/09/03 13:39:05;;;;;;;9.25;5.70;;;;;;;;;;5015792;28;20052;-64
2021/09/03 13:41:30;;;;;;;9.40;5.70;;;;;;;;;;5015288;28;20040;-64
2021/09/03 13:43:56;;;;;;;9.77;5.90;;;;;;;;;;5015428;28;20376;-65
2021/09/03 13:46:21;;;;;;;12.45;5.95;;;;;;;;;;5013999;28;20168;-65
2021/09/03 13:48:46;;;;;;;9.55;5.15;;;;;;;;;;5015374;28;20101;-64
2021/09/03 13:51:12;;;;;;;10.75;5.63;;;;;;;;;;5015064;28;20067;-64
2021/09/03 13:53:37;;;;;;;7.82;5.10;;;;;;;;;;5015446;28;20123;-64
2021/09/03 13:56:02;;;;;;;7.35;4.80;;;;;;;;;;5015011;28;20034;-64
2021/09/03 13:58:29;;;;;;;7.18;5.07;;;;;;;;;;5015243;28;20025;-65
2021/09/03 14:00:54;;;;;;;8.27;5.20;;;;;;;;;;5015104;28;20439;-64
2021/09/03 14:03:19;;;;;;;7.18;5.22;;;;;;;;;;5015378;28;20018;-64
2021/09/03 14:05:44;;;;;;;10.38;5.32;;;;;;;;;;5014786;28;20064;-65
2021/09/03 14:08:09;;;;;;;10.13;5.45;;;;;;;;;;5013822;28;20016;-65
2021/09/03 14:10:35;;;;;;;7.78;4.88;;;;;;;;;;5014505;28;20133;-64
2021/09/03 14:13:00;;;;;;;8.20;4.95;;;;;;;;;;5014927;28;20041;-64
2021/09/03 14:15:27;;;;;;;8.90;5.18;;;;;;;;;;5014852;28;20442;-64
2021/09/03 14:17:52;;;;;;;13.30;5.65;;;;;;;;;;5014767;28;20507;-64
2021/09/03 14:20:21;;;;;;;9.55;5.03;;;;;;;;;;5014359;28;20026;-65